createdAt,value
2023-03-07T00:04:05.147Z,2.53
2023-03-07T00:09:08.973Z,2.85
2023-03-07T00:14:12.679Z,2.50
2023-03-07T00:19:18.659Z,4.65
2023-03-07T00:24:22.434Z,2.10
2023-03-07T00:29:26.208Z,2.70
2023-03-07T00:34:31.290Z,3.67
2023-03-07T00:39:37.692Z,3.15
2023-03-07T00:44:41.403Z,3.90
2023-03-07T00:49:46.538Z,3.50
2023-03-07T00:54:50.242Z,3.65
2023-03-07T00:59:54.590Z,5.20
2023-03-07T01:04:59.824Z,4.03
2023-03-07T01:10:03.701Z,4.30
2023-03-07T01:15:08.756Z,5.78
2023-03-07T01:20:15.416Z,9.80
2023-03-07T01:25:19.364Z,7.75
2023-03-07T01:30:23.253Z,10.25
2023-03-07T01:35:29.185Z,10.05
2023-03-07T01:40:33.416Z,12.45
2023-03-07T01:46:17.553Z,14.95
2023-03-07T01:51:24.056Z,14.50
2023-03-07T01:56:28.916Z,18.58
2023-03-07T02:01:33.253Z,16.10
2023-03-07T02:06:41.205Z,13.07
2023-03-07T02:11:47.186Z,12.60
2023-03-07T02:16:50.952Z,9.60
2023-03-07T02:22:08.909Z,8.32
2023-03-07T02:27:15.406Z,25.77
2023-03-07T02:32:19.641Z,20.90
2023-03-07T02:37:27.555Z,20.55
2023-03-07T02:42:36.923Z,9.65
2023-03-07T02:47:42.332Z,10.73
2023-03-07T02:52:47.355Z,18.27
2023-03-07T02:57:53.732Z,8.27
2023-03-07T03:02:57.872Z,15.52
2023-03-07T03:08:01.643Z,10.73
2023-03-07T03:13:08.094Z,8.27
2023-03-07T03:18:12.105Z,8.98
2023-03-07T03:23:15.900Z,9.80
2023-03-07T03:28:21.870Z,13.27
2023-03-07T03:33:26.319Z,7.40
2023-03-07T03:38:29.968Z,7.20
2023-03-07T03:43:36.248Z,7.45
2023-03-07T03:48:40.860Z,7.97
2023-03-07T03:53:44.832Z,9.20
2023-03-07T03:58:51.507Z,7.37
2023-03-07T04:03:56.239Z,6.70
2023-03-07T04:09:00.175Z,11.05
2023-03-07T04:14:05.612Z,6.47
2023-03-07T04:19:12.881Z,7.28
2023-03-07T04:24:18.794Z,9.00
2023-03-07T04:29:25.245Z,6.25
2023-03-07T04:34:29.440Z,8.13
2023-03-07T04:39:33.204Z,7.72
2023-03-07T04:44:38.738Z,6.72
2023-03-07T04:49:42.743Z,9.25
2023-03-07T04:54:46.674Z,10.15
2023-03-07T04:59:52.816Z,13.48
2023-03-07T05:04:58.397Z,13.77
2023-03-07T05:10:02.211Z,11.48
2023-03-07T05:15:08.721Z,12.73
2023-03-07T05:20:13.166Z,7.90
2023-03-07T05:25:17.710Z,11.00
2023-03-07T05:30:22.927Z,11.55
2023-03-07T05:35:27.200Z,8.63
2023-03-07T05:40:31.585Z,12.37
2023-03-07T05:45:37.496Z,10.80
2023-03-07T05:50:42.068Z,10.15
2023-03-07T05:55:46.250Z,8.63
2023-03-07T06:00:52.532Z,11.82
2023-03-07T06:05:56.725Z,15.13
2023-03-07T06:11:01.099Z,9.07
2023-03-07T06:16:06.803Z,15.07
2023-03-07T06:21:15.976Z,10.70
2023-03-07T06:26:20.429Z,13.43
2023-03-07T06:31:26.214Z,19.17
2023-03-07T06:36:30.584Z,10.25
2023-03-07T06:41:34.881Z,11.07
2023-03-07T06:46:40.721Z,12.65
2023-03-07T06:51:45.925Z,12.30
2023-03-07T06:56:49.816Z,13.93
2023-03-07T07:01:55.649Z,14.77
2023-03-07T07:06:59.611Z,13.38
2023-03-07T07:12:05.287Z,12.07
2023-03-07T07:17:11.333Z,12.60
2023-03-07T07:22:18.024Z,11.65
2023-03-07T07:27:21.850Z,12.05
2023-03-07T07:32:27.319Z,9.15
2023-03-07T07:37:31.476Z,10.65
2023-03-07T07:42:35.297Z,8.68
2023-03-07T07:47:41.112Z,11.12
2023-03-07T07:52:45.005Z,9.70
2023-03-07T07:57:49.017Z,9.85
2023-03-07T08:02:54.186Z,9.52
2023-03-07T08:07:57.988Z,10.25
2023-03-07T08:13:01.681Z,11.70
2023-03-07T08:18:06.788Z,10.20
2023-03-07T08:23:10.553Z,11.10
2023-03-07T08:28:14.269Z,11.73
2023-03-07T08:33:19.340Z,12.15
2023-03-07T08:38:23.016Z,12.77
2023-03-07T08:43:26.677Z,12.37
2023-03-07T08:48:31.978Z,15.05
2023-03-07T08:53:35.738Z,14.80
2023-03-07T08:58:40.106Z,16.33
2023-03-07T09:03:45.235Z,18.50
2023-03-07T09:08:49.455Z,15.80
2023-03-07T09:13:53.434Z,18.58
2023-03-07T09:18:58.556Z,21.40
2023-03-07T09:24:02.284Z,16.17
2023-03-07T09:29:05.990Z,17.80
2023-03-07T09:34:11.097Z,14.23
2023-03-07T09:39:15.484Z,13.32
2023-03-07T09:44:34.110Z,13.75
2023-03-07T09:49:47.186Z,11.45
2023-03-07T09:54:56.864Z,10.68
2023-03-07T10:00:05.586Z,13.15
2023-03-07T10:05:28.457Z,11.15
2023-03-07T10:10:39.760Z,15.77
2023-03-07T10:15:46.687Z,13.23
2023-03-07T10:20:53.933Z,13.30
2023-03-07T10:26:04.654Z,8.68
2023-03-07T10:31:21.717Z,11.93
2023-03-07T10:36:37.235Z,10.45
2023-03-07T10:41:41.004Z,13.93
2023-03-07T10:46:55.426Z,13.85
2023-03-07T10:52:05.681Z,14.98
2023-03-07T10:57:11.230Z,15.05
2023-03-07T11:02:31.433Z,20.83
2023-03-07T11:07:37.465Z,22.73
2023-03-07T11:12:46.679Z,17.37
2023-03-07T11:17:50.758Z,16.10
2023-03-07T11:23:15.851Z,14.18
2023-03-07T11:28:31.276Z,14.05
2023-03-07T11:33:58.570Z,11.77
2023-03-07T11:44:22.834Z,12.32
2023-03-07T11:49:40.285Z,9.93
2023-03-07T11:54:53.636Z,9.57
2023-03-07T12:00:15.812Z,9.73
2023-03-07T12:05:39.449Z,11.75
2023-03-07T12:10:55.718Z,12.45
2023-03-07T12:16:12.391Z,13.10
2023-03-07T12:21:28.857Z,13.85
2023-03-07T12:26:42.042Z,12.70
2023-03-07T12:31:50.328Z,13.07
2023-03-07T12:36:58.327Z,12.02
2023-03-07T12:42:11.948Z,11.40
2023-03-07T12:47:24.427Z,11.27
2023-03-07T12:52:43.357Z,10.38
2023-03-07T12:57:55.241Z,9.57
2023-03-07T13:03:02.361Z,10.13
2023-03-07T13:08:08.405Z,7.90
2023-03-07T13:13:45.693Z,7.60
2023-03-07T13:18:50.919Z,7.93
2023-03-07T13:24:34.909Z,5.40
2023-03-07T13:30:07.076Z,6.35
2023-03-07T13:35:12.333Z,5.20
2023-03-07T13:40:54.856Z,4.75
2023-03-07T13:45:59.329Z,10.20
2023-03-07T13:51:09.334Z,9.60
2023-03-07T13:56:25.108Z,5.80
2023-03-07T14:01:32.965Z,12.68
2023-03-07T14:06:42.395Z,4.80
2023-03-07T14:11:56.175Z,4.47
2023-03-07T14:17:15.420Z,4.70
2023-03-07T14:22:31.938Z,2.47
2023-03-07T14:27:51.200Z,18.80
2023-03-07T14:32:54.966Z,8.25
2023-03-07T14:38:00.145Z,3.30
2023-03-07T14:43:21.232Z,6.03
2023-03-07T14:49:02.261Z,2.75
2023-03-07T14:54:14.758Z,1.70
2023-03-07T14:59:28.053Z,3.90
2023-03-07T15:04:35.799Z,4.62
2023-03-07T15:09:40.992Z,4.72
2023-03-07T15:14:47.569Z,4.12
2023-03-07T15:19:56.365Z,5.40
2023-03-07T15:25:01.650Z,5.85
2023-03-07T15:30:19.644Z,6.03
2023-03-07T15:35:23.492Z,7.72
2023-03-07T15:40:31.340Z,5.50
2023-03-07T15:45:38.205Z,8.25
2023-03-07T15:50:41.928Z,9.02
2023-03-07T15:55:56.821Z,7.22
2023-03-07T16:01:09.020Z,8.40
2023-03-07T16:06:36.418Z,7.68
2023-03-07T16:11:42.878Z,6.18
2023-03-07T16:16:46.678Z,8.00
2023-03-07T16:21:50.426Z,4.07
2023-03-07T16:26:55.481Z,6.75
2023-03-07T16:32:01.274Z,5.25
2023-03-07T16:37:05.117Z,10.82
2023-03-07T16:42:17.060Z,17.65
2023-03-07T16:47:20.773Z,13.05
2023-03-07T16:52:25.786Z,11.02
2023-03-07T16:57:30.845Z,11.20
2023-03-07T17:02:34.741Z,9.27
2023-03-07T17:07:38.470Z,19.65
2023-03-07T17:12:44.466Z,14.63
2023-03-07T17:17:48.459Z,12.15
2023-03-07T17:22:53.596Z,10.40
2023-03-07T17:28:02.376Z,9.35
2023-03-07T17:33:06.146Z,8.50
2023-03-07T17:38:09.861Z,10.88
2023-03-07T17:43:15.170Z,9.68
2023-03-07T17:48:18.915Z,8.52
2023-03-07T17:53:22.697Z,10.60
2023-03-07T17:58:27.792Z,9.15
2023-03-07T18:03:31.501Z,9.95
2023-03-07T18:08:35.618Z,9.70
2023-03-07T18:13:42.167Z,10.32
2023-03-07T18:18:58.208Z,9.88
2023-03-07T18:24:03.481Z,10.07
2023-03-07T18:29:08.567Z,17.67
2023-03-07T18:34:12.312Z,10.40
2023-03-07T18:39:16.022Z,11.18
2023-03-07T18:44:21.132Z,11.40
2023-03-07T18:49:24.918Z,14.00
2023-03-07T18:54:28.714Z,15.20
2023-03-07T18:59:33.837Z,15.68
2023-03-07T19:04:37.782Z,20.25
2023-03-07T19:09:43.874Z,15.07
2023-03-07T19:14:49.750Z,8.57
2023-03-07T19:19:59.042Z,9.80
2023-03-07T19:25:03.782Z,11.00
2023-03-07T19:30:11.230Z,13.68
2023-03-07T19:35:14.989Z,19.30
2023-03-07T19:40:18.792Z,16.80
2023-03-07T19:45:23.908Z,18.35
2023-03-07T19:50:27.630Z,24.30
2023-03-07T19:55:31.609Z,12.82
2023-03-07T20:00:38.704Z,14.20
2023-03-07T20:05:43.316Z,16.52
2023-03-07T20:10:47.033Z,26.15
2023-03-07T20:15:53.088Z,19.67
2023-03-07T20:20:56.914Z,19.15
2023-03-07T20:26:05.825Z,20.73
2023-03-07T20:31:11.274Z,17.35
2023-03-07T20:36:18.263Z,20.02
2023-03-07T20:41:25.209Z,23.30
2023-03-07T20:46:31.526Z,21.65
2023-03-07T20:51:37.842Z,15.40
2023-03-07T20:56:42.168Z,12.90
2023-03-07T21:01:47.960Z,15.85
2023-03-07T21:06:52.229Z,17.73
2023-03-07T21:11:56.065Z,17.27
2023-03-07T21:17:02.604Z,15.90
2023-03-07T21:22:06.377Z,22.95
2023-03-07T21:27:10.325Z,18.55
2023-03-07T21:32:15.521Z,18.75
2023-03-07T21:37:20.585Z,14.15
2023-03-07T21:42:24.420Z,14.40
2023-03-07T21:47:29.530Z,15.93
2023-03-07T21:52:33.255Z,13.25
2023-03-07T21:57:37.241Z,16.73
2023-03-07T22:02:42.302Z,17.75
2023-03-07T22:07:46.092Z,11.18
2023-03-07T22:12:49.855Z,10.30
2023-03-07T22:17:55.042Z,13.93
2023-03-07T22:22:58.748Z,14.90
2023-03-07T22:28:02.574Z,15.48
2023-03-07T22:33:07.709Z,26.37
2023-03-07T22:38:11.806Z,19.02
2023-03-07T22:43:15.653Z,18.85
2023-03-07T22:48:20.718Z,18.23
2023-03-07T22:53:27.056Z,21.73
2023-03-07T22:58:30.951Z,22.83
2023-03-07T23:03:36.064Z,23.38
2023-03-07T23:08:39.839Z,19.45
2023-03-07T23:13:44.187Z,24.15
2023-03-07T23:18:50.751Z,21.00
2023-03-07T23:23:55.300Z,23.38
2023-03-07T23:28:59.843Z,19.98
2023-03-07T23:34:07.799Z,22.95
2023-03-07T23:44:15.320Z,20.92
2023-03-07T23:49:20.996Z,26.45
2023-03-07T23:54:24.844Z,26.90
2023-03-07T23:59:28.641Z,27.87
